sensor_id;sensor_type;location;lat;lon;timestamp;P1;durP1;ratioP1;P2;durP2;ratioP2
14209;SDS011;7188;56.070;12.698;2023-04-28T00:02:05;5.30;;;1.40;;
14209;SDS011;7188;56.070;12.698;2023-04-28T00:04:31;6.17;;;1.57;;
14209;SDS011;7188;56.070;12.698;2023-04-28T00:06:57;4.67;;;1.63;;
14209;SDS011;7188;56.070;12.698;2023-04-28T00:09:22;2.50;;;1.40;;
14209;SDS011;7188;56.070;12.698;2023-04-28T00:11:48;6.03;;;1.33;;
14209;SDS011;7188;56.070;12.698;2023-04-28T00:14:14;5.73;;;1.43;;
14209;SDS011;7188;56.070;12.698;2023-04-28T00:16:39;7.60;;;1.87;;
14209;SDS011;7188;56.070;12.698;2023-04-28T00:19:05;3.70;;;1.33;;
14209;SDS011;7188;56.070;12.698;2023-04-28T00:21:31;2.40;;;1.13;;
14209;SDS011;7188;56.070;12.698;2023-04-28T00:23:57;6.57;;;1.43;;
14209;SDS011;7188;56.070;12.698;2023-04-28T00:26:22;3.23;;;1.47;;
14209;SDS011;7188;56.070;12.698;2023-04-28T00:28:48;3.77;;;1.30;;
14209;SDS011;7188;56.070;12.698;2023-04-28T00:31:14;6.67;;;1.80;;
14209;SDS011;7188;56.070;12.698;2023-04-28T00:33:40;6.43;;;1.10;;
14209;SDS011;7188;56.070;12.698;2023-04-28T00:36:07;2.33;;;1.20;;
14209;SDS011;7188;56.070;12.698;2023-04-28T00:38:33;3.33;;;1.40;;
14209;SDS011;7188;56.070;12.698;2023-04-28T00:40:59;3.17;;;1.30;;
14209;SDS011;7188;56.070;12.698;2023-04-28T00:43:25;8.37;;;1.50;;
14209;SDS011;7188;56.070;12.698;2023-04-28T00:45:51;2.87;;;1.10;;
14209;SDS011;7188;56.070;12.698;2023-04-28T00:48:17;3.60;;;1.60;;
14209;SDS011;7188;56.070;12.698;2023-04-28T00:50:43;6.43;;;1.47;;
14209;SDS011;7188;56.070;12.698;2023-04-28T00:53:10;1.10;;;1.00;;
14209;SDS011;7188;56.070;12.698;2023-04-28T00:55:37;2.10;;;1.20;;
14209;SDS011;7188;56.070;12.698;2023-04-28T00:58:06;7.43;;;1.50;;
14209;SDS011;7188;56.070;12.698;2023-04-28T01:00:32;2.97;;;1.70;;
14209;SDS011;7188;56.070;12.698;2023-04-28T01:02:58;6.23;;;1.43;;
14209;SDS011;7188;56.070;12.698;2023-04-28T01:05:25;6.60;;;1.50;;
14209;SDS011;7188;56.070;12.698;2023-04-28T01:07:51;5.50;;;1.63;;
14209;SDS011;7188;56.070;12.698;2023-04-28T01:10:17;5.13;;;1.47;;
14209;SDS011;7188;56.070;12.698;2023-04-28T01:12:43;3.23;;;1.33;;
14209;SDS011;7188;56.070;12.698;2023-04-28T01:15:15;4.43;;;1.40;;
14209;SDS011;7188;56.070;12.698;2023-04-28T01:17:42;1.87;;;1.10;;
14209;SDS011;7188;56.070;12.698;2023-04-28T01:20:09;3.20;;;1.37;;
14209;SDS011;7188;56.070;12.698;2023-04-28T01:22:35;3.07;;;1.33;;
14209;SDS011;7188;56.070;12.698;2023-04-28T01:25:00;6.63;;;1.20;;
14209;SDS011;7188;56.070;12.698;2023-04-28T01:27:27;4.93;;;1.37;;
14209;SDS011;7188;56.070;12.698;2023-04-28T01:29:53;6.20;;;1.70;;
14209;SDS011;7188;56.070;12.698;2023-04-28T01:32:19;2.53;;;1.30;;
14209;SDS011;7188;56.070;12.698;2023-04-28T01:34:45;5.50;;;1.60;;
14209;SDS011;7188;56.070;12.698;2023-04-28T01:37:11;4.07;;;1.17;;
14209;SDS011;7188;56.070;12.698;2023-04-28T01:39:37;6.37;;;1.47;;
14209;SDS011;7188;56.070;12.698;2023-04-28T01:42:02;4.37;;;1.33;;
14209;SDS011;7188;56.070;12.698;2023-04-28T01:44:28;6.73;;;1.30;;
14209;SDS011;7188;56.070;12.698;2023-04-28T01:46:54;2.07;;;1.20;;
14209;SDS011;7188;56.070;12.698;2023-04-28T01:49:20;4.73;;;1.23;;
14209;SDS011;7188;56.070;12.698;2023-04-28T01:51:45;2.90;;;1.20;;
14209;SDS011;7188;56.070;12.698;2023-04-28T01:54:11;3.93;;;1.50;;
14209;SDS011;7188;56.070;12.698;2023-04-28T01:56:37;5.73;;;1.73;;
14209;SDS011;7188;56.070;12.698;2023-04-28T01:59:02;4.63;;;2.00;;
14209;SDS011;7188;56.070;12.698;2023-04-28T02:01:28;3.67;;;1.67;;
14209;SDS011;7188;56.070;12.698;2023-04-28T02:03:54;4.07;;;1.03;;
14209;SDS011;7188;56.070;12.698;2023-04-28T02:06:20;5.80;;;1.33;;
14209;SDS011;7188;56.070;12.698;2023-04-28T02:08:46;2.93;;;1.50;;
14209;SDS011;7188;56.070;12.698;2023-04-28T02:11:11;7.00;;;1.37;;
14209;SDS011;7188;56.070;12.698;2023-04-28T02:13:37;4.87;;;1.80;;
14209;SDS011;7188;56.070;12.698;2023-04-28T02:16:03;3.77;;;1.33;;
14209;SDS011;7188;56.070;12.698;2023-04-28T02:18:28;3.30;;;1.07;;
14209;SDS011;7188;56.070;12.698;2023-04-28T02:20:54;3.47;;;1.60;;
14209;SDS011;7188;56.070;12.698;2023-04-28T02:23:20;3.47;;;1.53;;
14209;SDS011;7188;56.070;12.698;2023-04-28T02:25:45;4.17;;;2.07;;
14209;SDS011;7188;56.070;12.698;2023-04-28T02:28:11;3.93;;;1.57;;
14209;SDS011;7188;56.070;12.698;2023-04-28T02:30:37;3.37;;;1.43;;
14209;SDS011;7188;56.070;12.698;2023-04-28T02:33:03;4.93;;;1.83;;
14209;SDS011;7188;56.070;12.698;2023-04-28T02:35:28;5.10;;;2.10;;
14209;SDS011;7188;56.070;12.698;2023-04-28T02:37:54;6.63;;;1.77;;
14209;SDS011;7188;56.070;12.698;2023-04-28T02:40:22;5.23;;;1.77;;
14209;SDS011;7188;56.070;12.698;2023-04-28T02:42:48;2.13;;;1.03;;
14209;SDS011;7188;56.070;12.698;2023-04-28T02:45:14;3.67;;;1.50;;
14209;SDS011;7188;56.070;12.698;2023-04-28T02:47:39;5.53;;;1.40;;
14209;SDS011;7188;56.070;12.698;2023-04-28T02:50:05;2.17;;;1.50;;
14209;SDS011;7188;56.070;12.698;2023-04-28T02:52:31;4.50;;;1.20;;
14209;SDS011;7188;56.070;12.698;2023-04-28T02:54:57;2.90;;;1.50;;
14209;SDS011;7188;56.070;12.698;2023-04-28T02:57:23;3.57;;;1.50;;
14209;SDS011;7188;56.070;12.698;2023-04-28T02:59:48;6.03;;;1.50;;
14209;SDS011;7188;56.070;12.698;2023-04-28T03:02:14;5.20;;;2.33;;
14209;SDS011;7188;56.070;12.698;2023-04-28T03:04:40;5.27;;;1.67;;
14209;SDS011;7188;56.070;12.698;2023-04-28T03:07:06;5.63;;;1.23;;
14209;SDS011;7188;56.070;12.698;2023-04-28T03:09:32;9.60;;;2.03;;
14209;SDS011;7188;56.070;12.698;2023-04-28T03:11:57;7.27;;;1.70;;
14209;SDS011;7188;56.070;12.698;2023-04-28T03:14:23;3.93;;;1.20;;
14209;SDS011;7188;56.070;12.698;2023-04-28T03:16:49;5.97;;;2.27;;
14209;SDS011;7188;56.070;12.698;2023-04-28T03:19:15;6.23;;;1.60;;
14209;SDS011;7188;56.070;12.698;2023-04-28T03:21:40;5.43;;;1.73;;
14209;SDS011;7188;56.070;12.698;2023-04-28T03:24:06;10.27;;;1.77;;
14209;SDS011;7188;56.070;12.698;2023-04-28T03:26:32;1.63;;;1.33;;
14209;SDS011;7188;56.070;12.698;2023-04-28T03:28:58;4.10;;;1.60;;
14209;SDS011;7188;56.070;12.698;2023-04-28T03:31:24;2.90;;;1.60;;
14209;SDS011;7188;56.070;12.698;2023-04-28T03:33:49;10.27;;;1.73;;
14209;SDS011;7188;56.070;12.698;2023-04-28T03:36:15;4.10;;;1.80;;
14209;SDS011;7188;56.070;12.698;2023-04-28T03:38:42;2.87;;;1.53;;
14209;SDS011;7188;56.070;12.698;2023-04-28T03:41:08;2.17;;;1.80;;
14209;SDS011;7188;56.070;12.698;2023-04-28T03:43:33;3.20;;;1.57;;
14209;SDS011;7188;56.070;12.698;2023-04-28T03:46:01;2.70;;;1.40;;
14209;SDS011;7188;56.070;12.698;2023-04-28T03:48:28;3.93;;;1.50;;
14209;SDS011;7188;56.070;12.698;2023-04-28T03:50:54;3.97;;;1.40;;
14209;SDS011;7188;56.070;12.698;2023-04-28T03:53:19;5.60;;;2.03;;
14209;SDS011;7188;56.070;12.698;2023-04-28T03:55:45;3.47;;;1.30;;
14209;SDS011;7188;56.070;12.698;2023-04-28T03:58:11;3.77;;;1.63;;
14209;SDS011;7188;56.070;12.698;2023-04-28T04:00:36;3.87;;;1.70;;
14209;SDS011;7188;56.070;12.698;2023-04-28T04:03:02;4.03;;;1.50;;
14209;SDS011;7188;56.070;12.698;2023-04-28T04:05:28;8.07;;;2.50;;
14209;SDS011;7188;56.070;12.698;2023-04-28T04:07:53;3.67;;;1.30;;
14209;SDS011;7188;56.070;12.698;2023-04-28T04:10:19;4.17;;;1.47;;
14209;SDS011;7188;56.070;12.698;2023-04-28T04:12:45;5.03;;;2.13;;
14209;SDS011;7188;56.070;12.698;2023-04-28T04:15:10;2.43;;;1.70;;
14209;SDS011;7188;56.070;12.698;2023-04-28T04:17:36;3.73;;;1.57;;
14209;SDS011;7188;56.070;12.698;2023-04-28T04:20:01;5.27;;;1.90;;
14209;SDS011;7188;56.070;12.698;2023-04-28T04:22:27;11.93;;;1.90;;
14209;SDS011;7188;56.070;12.698;2023-04-28T04:24:53;6.00;;;1.30;;
14209;SDS011;7188;56.070;12.698;2023-04-28T04:27:18;4.00;;;1.50;;
14209;SDS011;7188;56.070;12.698;2023-04-28T04:29:44;9.43;;;1.93;;
14209;SDS011;7188;56.070;12.698;2023-04-28T04:32:10;5.93;;;1.60;;
14209;SDS011;7188;56.070;12.698;2023-04-28T04:34:35;9.73;;;2.17;;
14209;SDS011;7188;56.070;12.698;2023-04-28T04:37:01;6.73;;;1.70;;
14209;SDS011;7188;56.070;12.698;2023-04-28T04:39:26;9.53;;;1.47;;
14209;SDS011;7188;56.070;12.698;2023-04-28T04:41:52;5.57;;;1.60;;
14209;SDS011;7188;56.070;12.698;2023-04-28T04:44:18;4.63;;;1.23;;
14209;SDS011;7188;56.070;12.698;2023-04-28T04:46:44;4.93;;;1.27;;
14209;SDS011;7188;56.070;12.698;2023-04-28T04:49:10;6.30;;;2.00;;
14209;SDS011;7188;56.070;12.698;2023-04-28T04:51:36;4.50;;;1.57;;
14209;SDS011;7188;56.070;12.698;2023-04-28T04:54:01;5.23;;;1.40;;
14209;SDS011;7188;56.070;12.698;2023-04-28T04:56:27;2.23;;;1.70;;
14209;SDS011;7188;56.070;12.698;2023-04-28T04:58:52;3.63;;;1.60;;
14209;SDS011;7188;56.070;12.698;2023-04-28T05:01:18;5.10;;;1.20;;
14209;SDS011;7188;56.070;12.698;2023-04-28T05:03:44;5.30;;;1.83;;
14209;SDS011;7188;56.070;12.698;2023-04-28T05:06:09;4.87;;;1.60;;
14209;SDS011;7188;56.070;12.698;2023-04-28T05:08:35;3.47;;;1.50;;
14209;SDS011;7188;56.070;12.698;2023-04-28T05:11:01;2.97;;;1.20;;
14209;SDS011;7188;56.070;12.698;2023-04-28T05:13:27;5.53;;;1.93;;
14209;SDS011;7188;56.070;12.698;2023-04-28T05:15:52;10.27;;;1.80;;
14209;SDS011;7188;56.070;12.698;2023-04-28T05:18:18;3.90;;;1.10;;
14209;SDS011;7188;56.070;12.698;2023-04-28T05:20:44;3.97;;;1.90;;
14209;SDS011;7188;56.070;12.698;2023-04-28T05:23:09;2.77;;;1.20;;
14209;SDS011;7188;56.070;12.698;2023-04-28T05:25:35;4.17;;;1.20;;
14209;SDS011;7188;56.070;12.698;2023-04-28T05:28:01;5.53;;;1.30;;
14209;SDS011;7188;56.070;12.698;2023-04-28T05:30:31;6.60;;;1.53;;
14209;SDS011;7188;56.070;12.698;2023-04-28T05:32:57;5.13;;;1.70;;
14209;SDS011;7188;56.070;12.698;2023-04-28T05:35:23;6.43;;;1.83;;
14209;SDS011;7188;56.070;12.698;2023-04-28T05:37:48;5.50;;;2.20;;
14209;SDS011;7188;56.070;12.698;2023-04-28T05:40:14;3.03;;;1.97;;
14209;SDS011;7188;56.070;12.698;2023-04-28T05:42:40;8.03;;;1.87;;
14209;SDS011;7188;56.070;12.698;2023-04-28T05:45:05;8.17;;;2.23;;
14209;SDS011;7188;56.070;12.698;2023-04-28T05:47:32;3.10;;;2.03;;
14209;SDS011;7188;56.070;12.698;2023-04-28T05:49:57;4.77;;;1.70;;
14209;SDS011;7188;56.070;12.698;2023-04-28T05:52:23;4.20;;;1.60;;
14209;SDS011;7188;56.070;12.698;2023-04-28T05:54:48;6.87;;;1.37;;
14209;SDS011;7188;56.070;12.698;2023-04-28T05:57:14;7.07;;;1.30;;
14209;SDS011;7188;56.070;12.698;2023-04-28T05:59:40;2.73;;;1.30;;
14209;SDS011;7188;56.070;12.698;2023-04-28T06:02:06;3.80;;;1.10;;
14209;SDS011;7188;56.070;12.698;2023-04-28T06:04:31;4.37;;;1.30;;
14209;SDS011;7188;56.070;12.698;2023-04-28T06:06:57;5.77;;;2.03;;
14209;SDS011;7188;56.070;12.698;2023-04-28T06:09:23;4.27;;;1.30;;
14209;SDS011;7188;56.070;12.698;2023-04-28T06:11:48;3.83;;;1.13;;
14209;SDS011;7188;56.070;12.698;2023-04-28T06:14:14;5.23;;;1.43;;
14209;SDS011;7188;56.070;12.698;2023-04-28T06:16:40;5.77;;;1.20;;
14209;SDS011;7188;56.070;12.698;2023-04-28T06:19:06;6.60;;;1.37;;
14209;SDS011;7188;56.070;12.698;2023-04-28T06:21:31;4.70;;;1.40;;
14209;SDS011;7188;56.070;12.698;2023-04-28T06:23:57;4.97;;;1.27;;
14209;SDS011;7188;56.070;12.698;2023-04-28T06:26:23;5.77;;;1.30;;
14209;SDS011;7188;56.070;12.698;2023-04-28T06:28:48;4.17;;;1.67;;
14209;SDS011;7188;56.070;12.698;2023-04-28T06:31:15;2.53;;;1.10;;
14209;SDS011;7188;56.070;12.698;2023-04-28T06:33:41;4.60;;;1.60;;
14209;SDS011;7188;56.070;12.698;2023-04-28T06:36:06;6.00;;;1.40;;
14209;SDS011;7188;56.070;12.698;2023-04-28T06:38:32;3.93;;;1.37;;
14209;SDS011;7188;56.070;12.698;2023-04-28T06:40:58;2.40;;;1.07;;
14209;SDS011;7188;56.070;12.698;2023-04-28T06:43:24;4.60;;;1.00;;
14209;SDS011;7188;56.070;12.698;2023-04-28T06:45:49;3.90;;;1.17;;
14209;SDS011;7188;56.070;12.698;2023-04-28T06:48:16;3.53;;;1.33;;
14209;SDS011;7188;56.070;12.698;2023-04-28T06:50:42;4.47;;;1.00;;
14209;SDS011;7188;56.070;12.698;2023-04-28T06:53:07;3.80;;;1.07;;
14209;SDS011;7188;56.070;12.698;2023-04-28T06:55:33;5.23;;;1.17;;
14209;SDS011;7188;56.070;12.698;2023-04-28T06:57:59;4.50;;;1.00;;
14209;SDS011;7188;56.070;12.698;2023-04-28T07:00:25;2.80;;;1.07;;
14209;SDS011;7188;56.070;12.698;2023-04-28T07:02:51;4.63;;;1.30;;
14209;SDS011;7188;56.070;12.698;2023-04-28T07:05:16;2.70;;;0.80;;
14209;SDS011;7188;56.070;12.698;2023-04-28T07:07:42;3.83;;;1.30;;
14209;SDS011;7188;56.070;12.698;2023-04-28T07:10:08;4.27;;;1.10;;
14209;SDS011;7188;56.070;12.698;2023-04-28T07:12:35;2.70;;;0.90;;
14209;SDS011;7188;56.070;12.698;2023-04-28T07:15:00;4.73;;;1.50;;
14209;SDS011;7188;56.070;12.698;2023-04-28T07:17:26;4.13;;;1.03;;
14209;SDS011;7188;56.070;12.698;2023-04-28T07:19:52;5.53;;;1.40;;
14209;SDS011;7188;56.070;12.698;2023-04-28T07:22:17;6.47;;;1.17;;
14209;SDS011;7188;56.070;12.698;2023-04-28T07:24:43;4.07;;;1.20;;
14209;SDS011;7188;56.070;12.698;2023-04-28T07:27:09;3.60;;;1.30;;
14209;SDS011;7188;56.070;12.698;2023-04-28T07:29:34;3.70;;;1.57;;
14209;SDS011;7188;56.070;12.698;2023-04-28T07:32:01;3.10;;;1.10;;
14209;SDS011;7188;56.070;12.698;2023-04-28T07:34:33;5.00;;;1.27;;
14209;SDS011;7188;56.070;12.698;2023-04-28T07:36:59;6.23;;;1.10;;
14209;SDS011;7188;56.070;12.698;2023-04-28T07:39:26;6.13;;;1.07;;
14209;SDS011;7188;56.070;12.698;2023-04-28T07:41:51;8.03;;;1.70;;
14209;SDS011;7188;56.070;12.698;2023-04-28T07:44:17;3.47;;;1.50;;
14209;SDS011;7188;56.070;12.698;2023-04-28T07:46:42;4.33;;;1.27;;
14209;SDS011;7188;56.070;12.698;2023-04-28T07:49:08;5.00;;;0.80;;
14209;SDS011;7188;56.070;12.698;2023-04-28T07:51:34;2.47;;;1.07;;
14209;SDS011;7188;56.070;12.698;2023-04-28T07:53:59;5.60;;;1.10;;
14209;SDS011;7188;56.070;12.698;2023-04-28T07:56:25;4.00;;;1.27;;
14209;SDS011;7188;56.070;12.698;2023-04-28T07:58:51;2.50;;;1.10;;
14209;SDS011;7188;56.070;12.698;2023-04-28T08:01:17;3.10;;;1.23;;
14209;SDS011;7188;56.070;12.698;2023-04-28T08:03:43;3.13;;;1.20;;
14209;SDS011;7188;56.070;12.698;2023-04-28T08:06:08;4.90;;;1.00;;
14209;SDS011;7188;56.070;12.698;2023-04-28T08:08:34;3.10;;;1.17;;
14209;SDS011;7188;56.070;12.698;2023-04-28T08:11:00;2.33;;;1.00;;
14209;SDS011;7188;56.070;12.698;2023-04-28T08:13:26;5.03;;;0.83;;
14209;SDS011;7188;56.070;12.698;2023-04-28T08:15:53;6.87;;;1.40;;
14209;SDS011;7188;56.070;12.698;2023-04-28T08:18:20;4.50;;;1.10;;
14209;SDS011;7188;56.070;12.698;2023-04-28T08:20:46;3.03;;;0.87;;
14209;SDS011;7188;56.070;12.698;2023-04-28T08:23:12;3.87;;;0.90;;
14209;SDS011;7188;56.070;12.698;2023-04-28T08:25:38;3.97;;;1.00;;
14209;SDS011;7188;56.070;12.698;2023-04-28T08:28:03;3.53;;;1.33;;
14209;SDS011;7188;56.070;12.698;2023-04-28T08:30:30;6.03;;;1.43;;
14209;SDS011;7188;56.070;12.698;2023-04-28T08:32:56;3.20;;;1.27;;
14209;SDS011;7188;56.070;12.698;2023-04-28T08:35:22;1.83;;;0.80;;
14209;SDS011;7188;56.070;12.698;2023-04-28T08:37:47;2.23;;;0.90;;
14209;SDS011;7188;56.070;12.698;2023-04-28T08:40:13;1.90;;;0.63;;
14209;SDS011;7188;56.070;12.698;2023-04-28T08:42:39;4.83;;;1.10;;
14209;SDS011;7188;56.070;12.698;2023-04-28T08:45:06;3.40;;;0.87;;
14209;SDS011;7188;56.070;12.698;2023-04-28T08:47:33;3.07;;;0.83;;
14209;SDS011;7188;56.070;12.698;2023-04-28T08:50:03;3.80;;;0.97;;
14209;SDS011;7188;56.070;12.698;2023-04-28T08:52:30;1.97;;;0.77;;
14209;SDS011;7188;56.070;12.698;2023-04-28T08:54:59;3.00;;;1.00;;
14209;SDS011;7188;56.070;12.698;2023-04-28T08:57:30;1.50;;;0.87;;
14209;SDS011;7188;56.070;12.698;2023-04-28T09:00:08;2.73;;;1.07;;
14209;SDS011;7188;56.070;12.698;2023-04-28T09:02:34;1.67;;;0.73;;
14209;SDS011;7188;56.070;12.698;2023-04-28T09:05:01;1.27;;;0.60;;
14209;SDS011;7188;56.070;12.698;2023-04-28T09:07:34;0.77;;;0.73;;
14209;SDS011;7188;56.070;12.698;2023-04-28T09:10:16;2.37;;;1.10;;
14209;SDS011;7188;56.070;12.698;2023-04-28T09:12:43;3.57;;;1.10;;
14209;SDS011;7188;56.070;12.698;2023-04-28T09:15:09;3.17;;;0.80;;
14209;SDS011;7188;56.070;12.698;2023-04-28T09:17:47;1.93;;;0.80;;
14209;SDS011;7188;56.070;12.698;2023-04-28T09:20:24;7.53;;;1.40;;
14209;SDS011;7188;56.070;12.698;2023-04-28T09:22:51;1.53;;;1.20;;
14209;SDS011;7188;56.070;12.698;2023-04-28T09:25:18;2.00;;;0.90;;
14209;SDS011;7188;56.070;12.698;2023-04-28T09:27:51;2.33;;;1.20;;
14209;SDS011;7188;56.070;12.698;2023-04-28T09:30:16;4.00;;;1.00;;
14209;SDS011;7188;56.070;12.698;2023-04-28T09:32:42;4.03;;;1.03;;
14209;SDS011;7188;56.070;12.698;2023-04-28T09:35:08;2.43;;;0.70;;
14209;SDS011;7188;56.070;12.698;2023-04-28T09:37:34;1.77;;;0.60;;
14209;SDS011;7188;56.070;12.698;2023-04-28T09:40:05;1.10;;;0.70;;
14209;SDS011;7188;56.070;12.698;2023-04-28T09:45:11;2.13;;;0.90;;
14209;SDS011;7188;56.070;12.698;2023-04-28T09:50:11;1.93;;;1.00;;
14209;SDS011;7188;56.070;12.698;2023-04-28T09:52:42;3.47;;;0.70;;
14209;SDS011;7188;56.070;12.698;2023-04-28T09:55:10;0.63;;;0.43;;
14209;SDS011;7188;56.070;12.698;2023-04-28T09:57:37;1.00;;;0.40;;
14209;SDS011;7188;56.070;12.698;2023-04-28T10:00:04;1.03;;;0.73;;
14209;SDS011;7188;56.070;12.698;2023-04-28T10:02:34;3.30;;;0.50;;
14209;SDS011;7188;56.070;12.698;2023-04-28T10:05:00;1.27;;;0.40;;
14209;SDS011;7188;56.070;12.698;2023-04-28T10:07:27;1.47;;;0.50;;
14209;SDS011;7188;56.070;12.698;2023-04-28T10:09:55;1.60;;;0.40;;
14209;SDS011;7188;56.070;12.698;2023-04-28T10:12:22;2.23;;;0.50;;
14209;SDS011;7188;56.070;12.698;2023-04-28T10:14:49;1.10;;;0.40;;
14209;SDS011;7188;56.070;12.698;2023-04-28T10:17:18;0.43;;;0.30;;
14209;SDS011;7188;56.070;12.698;2023-04-28T10:19:45;2.50;;;0.40;;
14209;SDS011;7188;56.070;12.698;2023-04-28T10:27:50;0.90;;;0.50;;
14209;SDS011;7188;56.070;12.698;2023-04-28T10:30:23;2.83;;;0.47;;
14209;SDS011;7188;56.070;12.698;2023-04-28T10:35:49;1.77;;;0.40;;
14209;SDS011;7188;56.070;12.698;2023-04-28T10:40:46;1.40;;;0.30;;
14209;SDS011;7188;56.070;12.698;2023-04-28T10:43:13;1.27;;;0.60;;
14209;SDS011;7188;56.070;12.698;2023-04-28T10:48:21;2.30;;;0.40;;
14209;SDS011;7188;56.070;12.698;2023-04-28T10:56:19;1.73;;;0.50;;
14209;SDS011;7188;56.070;12.698;2023-04-28T10:58:47;4.47;;;0.93;;
14209;SDS011;7188;56.070;12.698;2023-04-28T11:06:23;1.00;;;0.30;;
14209;SDS011;7188;56.070;12.698;2023-04-28T11:08:53;1.23;;;0.30;;
14209;SDS011;7188;56.070;12.698;2023-04-28T11:11:25;2.33;;;0.60;;
14209;SDS011;7188;56.070;12.698;2023-04-28T11:13:56;2.03;;;0.73;;
14209;SDS011;7188;56.070;12.698;2023-04-28T11:16:57;1.70;;;0.53;;
14209;SDS011;7188;56.070;12.698;2023-04-28T11:19:27;2.03;;;0.80;;
14209;SDS011;7188;56.070;12.698;2023-04-28T11:22:21;2.50;;;0.60;;
14209;SDS011;7188;56.070;12.698;2023-04-28T11:24:54;1.70;;;0.70;;
14209;SDS011;7188;56.070;12.698;2023-04-28T11:27:25;1.73;;;0.53;;
14209;SDS011;7188;56.070;12.698;2023-04-28T11:29:52;3.30;;;0.80;;
14209;SDS011;7188;56.070;12.698;2023-04-28T11:32:24;2.73;;;0.70;;
14209;SDS011;7188;56.070;12.698;2023-04-28T11:34:52;2.13;;;0.60;;
14209;SDS011;7188;56.070;12.698;2023-04-28T11:37:17;1.63;;;0.50;;
14209;SDS011;7188;56.070;12.698;2023-04-28T11:39:45;4.40;;;0.70;;
14209;SDS011;7188;56.070;12.698;2023-04-28T11:42:11;1.60;;;0.80;;
14209;SDS011;7188;56.070;12.698;2023-04-28T11:44:37;3.13;;;0.97;;
14209;SDS011;7188;56.070;12.698;2023-04-28T11:47:03;1.97;;;1.13;;
14209;SDS011;7188;56.070;12.698;2023-04-28T11:49:31;3.97;;;1.10;;
14209;SDS011;7188;56.070;12.698;2023-04-28T11:52:06;3.03;;;0.53;;
14209;SDS011;7188;56.070;12.698;2023-04-28T11:54:32;3.90;;;0.60;;
14209;SDS011;7188;56.070;12.698;2023-04-28T11:56:58;1.60;;;0.70;;
14209;SDS011;7188;56.070;12.698;2023-04-28T11:59:26;1.93;;;1.03;;
14209;SDS011;7188;56.070;12.698;2023-04-28T12:01:53;1.70;;;0.50;;
14209;SDS011;7188;56.070;12.698;2023-04-28T12:04:27;2.27;;;0.57;;
14209;SDS011;7188;56.070;12.698;2023-04-28T12:07:14;3.37;;;0.73;;
14209;SDS011;7188;56.070;12.698;2023-04-28T12:09:40;2.87;;;1.07;;
14209;SDS011;7188;56.070;12.698;2023-04-28T12:12:08;4.17;;;0.70;;
14209;SDS011;7188;56.070;12.698;2023-04-28T12:19:57;1.23;;;0.47;;
14209;SDS011;7188;56.070;12.698;2023-04-28T12:22:27;0.73;;;0.50;;
14209;SDS011;7188;56.070;12.698;2023-04-28T12:27:29;7.47;;;0.70;;
14209;SDS011;7188;56.070;12.698;2023-04-28T12:29:56;0.63;;;0.40;;
14209;SDS011;7188;56.070;12.698;2023-04-28T12:32:43;2.10;;;0.70;;
14209;SDS011;7188;56.070;12.698;2023-04-28T12:35:08;3.70;;;0.70;;
14209;SDS011;7188;56.070;12.698;2023-04-28T12:37:34;1.00;;;0.70;;
14209;SDS011;7188;56.070;12.698;2023-04-28T12:40:02;4.47;;;0.97;;
14209;SDS011;7188;56.070;12.698;2023-04-28T12:42:28;2.83;;;0.93;;
14209;SDS011;7188;56.070;12.698;2023-04-28T12:44:54;5.30;;;1.07;;
14209;SDS011;7188;56.070;12.698;2023-04-28T12:47:20;2.67;;;0.80;;
14209;SDS011;7188;56.070;12.698;2023-04-28T12:49:46;3.60;;;0.80;;
14209;SDS011;7188;56.070;12.698;2023-04-28T12:52:14;3.87;;;1.17;;
14209;SDS011;7188;56.070;12.698;2023-04-28T12:54:40;1.57;;;0.73;;
14209;SDS011;7188;56.070;12.698;2023-04-28T12:57:11;3.20;;;0.70;;
14209;SDS011;7188;56.070;12.698;2023-04-28T12:59:37;1.70;;;0.60;;
14209;SDS011;7188;56.070;12.698;2023-04-28T13:02:03;1.60;;;0.63;;
14209;SDS011;7188;56.070;12.698;2023-04-28T13:04:29;1.20;;;0.60;;
14209;SDS011;7188;56.070;12.698;2023-04-28T13:06:56;1.90;;;0.80;;
14209;SDS011;7188;56.070;12.698;2023-04-28T13:09:23;1.60;;;0.60;;
14209;SDS011;7188;56.070;12.698;2023-04-28T13:11:49;5.03;;;0.90;;
14209;SDS011;7188;56.070;12.698;2023-04-28T13:14:15;2.70;;;0.97;;
14209;SDS011;7188;56.070;12.698;2023-04-28T13:16:40;3.53;;;1.00;;
14209;SDS011;7188;56.070;12.698;2023-04-28T13:19:06;5.20;;;0.67;;
14209;SDS011;7188;56.070;12.698;2023-04-28T13:21:34;1.90;;;1.10;;
14209;SDS011;7188;56.070;12.698;2023-04-28T13:24:01;3.43;;;0.80;;
14209;SDS011;7188;56.070;12.698;2023-04-28T13:26:28;2.17;;;0.63;;
14209;SDS011;7188;56.070;12.698;2023-04-28T13:28:54;2.20;;;0.70;;
14209;SDS011;7188;56.070;12.698;2023-04-28T13:31:20;1.50;;;0.43;;
14209;SDS011;7188;56.070;12.698;2023-04-28T13:33:45;2.83;;;0.93;;
14209;SDS011;7188;56.070;12.698;2023-04-28T13:36:11;2.13;;;0.57;;
14209;SDS011;7188;56.070;12.698;2023-04-28T13:38:37;4.83;;;0.57;;
14209;SDS011;7188;56.070;12.698;2023-04-28T13:41:03;2.13;;;0.30;;
14209;SDS011;7188;56.070;12.698;2023-04-28T13:43:29;2.00;;;0.37;;
14209;SDS011;7188;56.070;12.698;2023-04-28T13:45:57;1.33;;;0.43;;
14209;SDS011;7188;56.070;12.698;2023-04-28T13:48:23;0.57;;;0.30;;
14209;SDS011;7188;56.070;12.698;2023-04-28T13:50:51;0.47;;;0.30;;
14209;SDS011;7188;56.070;12.698;2023-04-28T13:53:17;0.50;;;0.30;;
14209;SDS011;7188;56.070;12.698;2023-04-28T13:55:43;0.40;;;0.40;;
14209;SDS011;7188;56.070;12.698;2023-04-28T13:58:09;1.20;;;0.50;;
14209;SDS011;7188;56.070;12.698;2023-04-28T14:00:35;1.17;;;0.70;;
14209;SDS011;7188;56.070;12.698;2023-04-28T14:03:01;1.93;;;0.70;;
14209;SDS011;7188;56.070;12.698;2023-04-28T14:05:27;1.03;;;0.30;;
14209;SDS011;7188;56.070;12.698;2023-04-28T14:07:53;0.53;;;0.50;;
14209;SDS011;7188;56.070;12.698;2023-04-28T14:10:19;1.33;;;0.40;;
14209;SDS011;7188;56.070;12.698;2023-04-28T14:12:46;1.07;;;0.40;;
14209;SDS011;7188;56.070;12.698;2023-04-28T14:15:11;1.20;;;0.40;;
14209;SDS011;7188;56.070;12.698;2023-04-28T14:17:37;0.60;;;0.30;;
14209;SDS011;7188;56.070;12.698;2023-04-28T14:20:03;1.33;;;0.50;;
14209;SDS011;7188;56.070;12.698;2023-04-28T14:22:29;3.17;;;0.77;;
14209;SDS011;7188;56.070;12.698;2023-04-28T14:24:54;0.57;;;0.40;;
14209;SDS011;7188;56.070;12.698;2023-04-28T14:27:20;1.27;;;0.50;;
14209;SDS011;7188;56.070;12.698;2023-04-28T14:29:46;2.17;;;0.63;;
14209;SDS011;7188;56.070;12.698;2023-04-28T14:32:13;2.20;;;0.93;;
14209;SDS011;7188;56.070;12.698;2023-04-28T14:34:40;1.93;;;0.60;;
14209;SDS011;7188;56.070;12.698;2023-04-28T14:37:06;2.43;;;0.70;;
14209;SDS011;7188;56.070;12.698;2023-04-28T14:39:31;2.73;;;0.70;;
14209;SDS011;7188;56.070;12.698;2023-04-28T14:41:57;3.13;;;0.63;;
14209;SDS011;7188;56.070;12.698;2023-04-28T14:44:23;1.10;;;0.60;;
14209;SDS011;7188;56.070;12.698;2023-04-28T14:46:48;2.50;;;1.00;;
14209;SDS011;7188;56.070;12.698;2023-04-28T14:49:14;2.37;;;0.70;;
14209;SDS011;7188;56.070;12.698;2023-04-28T14:51:40;1.67;;;0.80;;
14209;SDS011;7188;56.070;12.698;2023-04-28T14:54:06;1.80;;;1.00;;
14209;SDS011;7188;56.070;12.698;2023-04-28T14:56:33;2.93;;;0.83;;
14209;SDS011;7188;56.070;12.698;2023-04-28T14:58:59;5.70;;;0.87;;
14209;SDS011;7188;56.070;12.698;2023-04-28T15:01:24;2.67;;;1.00;;
14209;SDS011;7188;56.070;12.698;2023-04-28T15:03:50;2.27;;;0.80;;
14209;SDS011;7188;56.070;12.698;2023-04-28T15:06:16;3.33;;;0.90;;
14209;SDS011;7188;56.070;12.698;2023-04-28T15:08:42;4.23;;;0.70;;
14209;SDS011;7188;56.070;12.698;2023-04-28T15:11:07;2.43;;;0.70;;
14209;SDS011;7188;56.070;12.698;2023-04-28T15:13:33;1.73;;;0.70;;
14209;SDS011;7188;56.070;12.698;2023-04-28T15:15:59;3.57;;;1.13;;
14209;SDS011;7188;56.070;12.698;2023-04-28T15:18:25;4.83;;;1.30;;
14209;SDS011;7188;56.070;12.698;2023-04-28T15:20:51;4.83;;;1.70;;
14209;SDS011;7188;56.070;12.698;2023-04-28T15:23:17;3.53;;;0.83;;